KADG

Lenawee County Airport

Adrian, Michigan, USA
METAR KADG 221753Z AUTO 10013KT 10SM CLR 14/M05 A3038 RMK AO2 SLP294 T01441050 10150 20039 58012 TSNO
Observed Flight Rules
Apr-22 @ 17:53 UTC (22 minutes ago) Visual Flight Rules
Wind Visibility Clouds
100° at 13 knots 10 miles
  • Clear skies
Temperatures Readings
Current 14°C / 57°F
Dewpoint -5°C / 23°F
Humidity 27%
Altimeter 30.38" Hg
Pressure 1029.4 hPa
Elevation 241
METAR KADG 221753Z AUTO 10013KT 10SM CLR 14/M05 A3038 RMK AO2 SLP294 T01441050 10150 20039 58012 TSNO
Observed Flight Rules
Apr-22 @ 17:53 UTC
(22 minutes ago)
VFR
Wind Visibility
100° at 13 knots 10 miles
Clouds
  • Clear skies
Temperature Dewpoint
14°C / 57°F -5°C / 23°F
Humidity Altimeter Pressure
27% 30.38" Hg 1029.4 hPa